createdAt,value
2023-05-19T00:02:23.334Z,43.63
2023-05-19T00:04:52.113Z,43.84
2023-05-19T00:07:30.890Z,43.78
2023-05-19T00:10:02.154Z,43.64
2023-05-19T00:12:30.821Z,43.87
2023-05-19T00:15:01.291Z,43.69
2023-05-19T00:17:29.955Z,43.89
2023-05-19T00:20:00.330Z,44.01
2023-05-19T00:22:28.751Z,43.73
2023-05-19T00:24:56.966Z,43.66
2023-05-19T00:27:27.938Z,43.44
2023-05-19T00:30:02.398Z,43.38
2023-05-19T00:32:30.950Z,43.28
2023-05-19T00:35:00.593Z,43.33
2023-05-19T00:37:31.723Z,43.46
2023-05-19T00:40:00.392Z,43.40
2023-05-19T00:42:28.846Z,43.45
2023-05-19T00:44:57.529Z,43.32
2023-05-19T00:47:27.426Z,43.31
2023-05-19T00:49:55.672Z,43.27
2023-05-19T00:52:27.648Z,42.97
2023-05-19T00:55:03.555Z,42.95
2023-05-19T00:57:32.413Z,43.09
2023-05-19T01:00:01.548Z,43.23
2023-05-19T01:02:30.579Z,42.92
2023-05-19T01:05:00.164Z,43.29
2023-05-19T01:07:30.557Z,43.22
2023-05-19T01:09:59.403Z,42.82
2023-05-19T01:12:28.598Z,43.29
2023-05-19T01:15:00.404Z,43.86
2023-05-19T01:17:57.280Z,44.03
2023-05-19T01:20:43.237Z,44.23
2023-05-19T01:23:43.234Z,44.21
2023-05-19T01:26:49.162Z,44.46
2023-05-19T01:29:37.361Z,44.79
2023-05-19T01:32:09.888Z,44.69
2023-05-19T01:34:44.678Z,44.62
2023-05-19T01:37:18.177Z,44.86
2023-05-19T01:39:53.192Z,44.67
2023-05-19T01:42:22.801Z,44.72
2023-05-19T01:44:52.305Z,44.83
2023-05-19T01:47:20.701Z,44.95
2023-05-19T01:49:49.138Z,44.65
2023-05-19T01:52:17.429Z,44.79
2023-05-19T01:54:46.124Z,44.49
2023-05-19T01:57:37.787Z,44.70
2023-05-19T02:00:39.625Z,44.52
2023-05-19T02:03:22.237Z,44.74
2023-05-19T02:06:07.688Z,44.46
2023-05-19T02:08:56.234Z,44.63
2023-05-19T02:11:47.349Z,44.64
2023-05-19T02:14:20.973Z,44.59
2023-05-19T02:16:49.938Z,44.76
2023-05-19T02:19:31.067Z,44.67
2023-05-19T02:21:59.322Z,44.87
2023-05-19T02:24:27.682Z,45.04
2023-05-19T02:27:00.061Z,44.89
2023-05-19T02:29:28.666Z,44.65
2023-05-19T02:31:57.490Z,45.13
2023-05-19T02:34:26.145Z,45.19
2023-05-19T02:36:55.023Z,44.80
2023-05-19T02:39:24.364Z,44.75
2023-05-19T02:41:53.328Z,45.19
2023-05-19T02:44:22.317Z,44.88
2023-05-19T02:46:53.815Z,44.71
2023-05-19T02:49:22.632Z,44.79
2023-05-19T02:51:53.228Z,44.65
2023-05-19T02:54:21.979Z,44.99
2023-05-19T02:56:51.749Z,44.74
2023-05-19T02:59:20.289Z,45.04
2023-05-19T03:01:58.992Z,44.82
2023-05-19T03:04:28.242Z,45.07
2023-05-19T03:07:29.164Z,44.86
2023-05-19T03:09:57.466Z,44.57
2023-05-19T03:12:25.627Z,44.78
2023-05-19T03:14:54.637Z,44.55
2023-05-19T03:17:23.561Z,44.62
2023-05-19T03:19:51.955Z,44.58
2023-05-19T03:22:21.297Z,44.60
2023-05-19T03:24:51.392Z,44.69
2023-05-19T03:27:19.596Z,44.83
2023-05-19T03:29:48.363Z,44.82
2023-05-19T03:32:19.493Z,44.61
2023-05-19T03:34:48.247Z,44.42
2023-05-19T03:37:17.057Z,44.93
2023-05-19T03:39:45.701Z,44.76
2023-05-19T03:42:14.552Z,44.80
2023-05-19T03:44:47.263Z,44.73
2023-05-19T03:47:18.275Z,44.84
2023-05-19T03:50:14.329Z,44.20
2023-05-19T03:52:55.529Z,44.37
2023-05-19T03:55:34.131Z,44.10
2023-05-19T03:58:07.739Z,44.24
2023-05-19T04:00:43.654Z,44.22
2023-05-19T04:03:13.566Z,44.23
2023-05-19T04:05:42.472Z,44.21
2023-05-19T04:08:10.945Z,43.83
2023-05-19T04:10:39.432Z,43.84
2023-05-19T04:13:13.487Z,44.15
2023-05-19T04:15:42.002Z,44.05
2023-05-19T04:18:11.190Z,43.95
2023-05-19T04:20:44.820Z,43.89
2023-05-19T04:23:16.666Z,44.22
2023-05-19T04:25:49.117Z,44.16
2023-05-19T04:28:18.348Z,44.33
2023-05-19T04:33:15.111Z,44.27
2023-05-19T04:35:44.439Z,44.08
2023-05-19T04:38:19.156Z,43.82
2023-05-19T04:40:50.818Z,44.08
2023-05-19T04:43:20.079Z,44.31
2023-05-19T04:45:51.800Z,43.88
2023-05-19T04:48:23.521Z,44.03
2023-05-19T04:50:52.815Z,44.55
2023-05-19T04:53:22.427Z,44.06
2023-05-19T04:55:51.509Z,43.98
2023-05-19T04:58:21.260Z,44.21
2023-05-19T05:01:00.467Z,43.85
2023-05-19T05:03:31.280Z,44.16
2023-05-19T05:06:00.274Z,44.14
2023-05-19T05:08:30.469Z,44.31
2023-05-19T05:10:59.772Z,44.74
2023-05-19T05:13:28.750Z,44.63
2023-05-19T05:15:57.925Z,44.24
2023-05-19T05:18:27.844Z,44.65
2023-05-19T05:20:56.891Z,44.48
2023-05-19T05:23:31.858Z,44.28
2023-05-19T05:26:08.193Z,44.27
2023-05-19T05:28:39.477Z,44.13
2023-05-19T05:31:07.924Z,44.15
2023-05-19T05:33:39.415Z,43.91
2023-05-19T05:36:08.613Z,43.90
2023-05-19T05:38:38.970Z,43.97
2023-05-19T05:41:07.637Z,44.14
2023-05-19T05:43:39.733Z,43.74
2023-05-19T05:46:09.304Z,44.50
2023-05-19T05:48:38.909Z,44.09
2023-05-19T05:51:11.295Z,44.10
2023-05-19T05:53:45.455Z,43.94
2023-05-19T05:56:16.432Z,44.32
2023-05-19T05:58:53.130Z,44.31
2023-05-19T06:01:24.647Z,44.44
2023-05-19T06:03:55.716Z,43.97
2023-05-19T06:06:25.332Z,44.49
2023-05-19T06:08:57.328Z,44.35
2023-05-19T06:11:26.616Z,44.20
2023-05-19T06:13:56.390Z,44.82
2023-05-19T06:16:44.901Z,44.35
2023-05-19T06:19:13.399Z,44.29
2023-05-19T06:21:43.281Z,44.17
2023-05-19T06:24:15.276Z,43.76
2023-05-19T06:26:43.998Z,43.62
2023-05-19T06:29:14.789Z,43.78
2023-05-19T06:31:43.380Z,43.23
2023-05-19T06:34:17.927Z,42.92
2023-05-19T06:36:48.694Z,42.59
2023-05-19T06:39:18.701Z,42.65
2023-05-19T06:41:49.894Z,42.39
2023-05-19T06:44:38.486Z,42.57
2023-05-19T06:47:11.421Z,42.77
2023-05-19T06:49:39.868Z,42.36
2023-05-19T06:52:08.829Z,42.55
2023-05-19T06:54:37.723Z,42.45
2023-05-19T06:57:08.738Z,42.25
2023-05-19T06:59:39.712Z,42.21
2023-05-19T07:02:58.520Z,42.01
2023-05-19T07:05:27.001Z,45.41
2023-05-19T07:07:58.677Z,43.12
2023-05-19T07:10:29.960Z,42.21
2023-05-19T07:12:59.187Z,42.27
2023-05-19T07:15:32.164Z,41.99
2023-05-19T07:18:12.543Z,41.91
2023-05-19T07:20:45.119Z,42.14
2023-05-19T07:23:17.352Z,42.46
2023-05-19T07:25:50.410Z,42.44
2023-05-19T07:31:15.798Z,42.43
2023-05-19T07:33:46.874Z,42.25
2023-05-19T07:36:17.844Z,41.79
2023-05-19T07:38:49.667Z,41.17
2023-05-19T07:41:18.274Z,41.03
2023-05-19T07:43:47.092Z,40.79
2023-05-19T07:46:20.845Z,41.37
2023-05-19T07:48:49.787Z,41.27
2023-05-19T07:51:19.570Z,42.32
2023-05-19T07:53:48.286Z,41.33
2023-05-19T07:56:16.800Z,41.74
2023-05-19T07:58:47.910Z,41.55
2023-05-19T08:01:19.264Z,41.11
2023-05-19T08:03:52.052Z,40.79
2023-05-19T08:06:30.353Z,40.64
2023-05-19T08:12:10.857Z,41.43
2023-05-19T08:14:43.857Z,41.15
2023-05-19T08:17:13.147Z,40.83
2023-05-19T08:19:44.229Z,40.62
2023-05-19T08:22:15.512Z,40.92
2023-05-19T08:24:53.684Z,39.72
2023-05-19T08:27:24.375Z,39.97
2023-05-19T08:30:00.658Z,40.12
2023-05-19T08:32:29.351Z,40.13
2023-05-19T08:34:57.852Z,40.70
2023-05-19T08:37:26.817Z,40.65
2023-05-19T08:39:56.183Z,40.84
2023-05-19T08:42:27.818Z,40.85
2023-05-19T08:44:56.260Z,41.58
2023-05-19T08:47:28.646Z,41.86
2023-05-19T08:50:05.645Z,42.63
2023-05-19T08:52:49.556Z,43.41
2023-05-19T08:55:26.532Z,43.42
2023-05-19T08:57:56.727Z,43.83
2023-05-19T09:00:26.336Z,43.77
2023-05-19T09:03:00.825Z,43.65
2023-05-19T09:05:39.979Z,44.02
2023-05-19T09:08:29.813Z,43.63
2023-05-19T09:11:33.700Z,44.63
2023-05-19T09:14:06.097Z,44.61
2023-05-19T09:16:37.377Z,44.51
2023-05-19T09:19:07.932Z,44.34
2023-05-19T09:21:36.941Z,44.20
2023-05-19T09:24:10.090Z,44.56
2023-05-19T09:47:50.316Z,44.88
2023-05-19T09:50:33.578Z,44.79
2023-05-19T09:59:31.345Z,45.23
2023-05-19T10:02:07.026Z,44.83
2023-05-19T10:04:36.612Z,45.07
2023-05-19T10:07:06.639Z,45.07
2023-05-19T10:09:42.992Z,44.88
2023-05-19T10:22:15.360Z,46.50
2023-05-19T10:24:43.687Z,46.10
2023-05-19T10:27:15.293Z,45.58
2023-05-19T10:29:49.523Z,45.34
2023-05-19T10:32:24.956Z,45.11
2023-05-19T10:35:04.972Z,44.96
2023-05-19T10:37:45.408Z,44.79
2023-05-19T10:40:21.808Z,44.85
2023-05-19T10:43:08.435Z,44.77
2023-05-19T10:45:44.556Z,44.43
2023-05-19T10:48:15.776Z,44.60
2023-05-19T10:50:46.065Z,44.19
2023-05-19T10:53:22.696Z,44.42
2023-05-19T10:55:59.236Z,43.83
2023-05-19T10:58:46.033Z,43.76
2023-05-19T11:01:18.874Z,43.30
2023-05-19T11:03:52.583Z,43.59
2023-05-19T11:06:21.945Z,43.68
2023-05-19T11:09:05.642Z,43.95
2023-05-19T11:11:54.674Z,43.96
2023-05-19T11:14:26.973Z,43.92
2023-05-19T11:16:59.314Z,44.22
2023-05-19T11:19:35.920Z,43.86
2023-05-19T11:22:11.563Z,43.64
2023-05-19T11:24:50.873Z,43.53
2023-05-19T11:27:23.275Z,43.11
2023-05-19T11:29:51.892Z,42.81
2023-05-19T11:32:30.058Z,42.78
2023-05-19T11:34:58.455Z,42.73
2023-05-19T11:37:28.932Z,42.98
2023-05-19T11:40:00.307Z,42.79
2023-05-19T11:42:28.343Z,42.78
2023-05-19T11:44:56.568Z,47.31
2023-05-19T11:47:25.082Z,46.00
2023-05-19T11:49:54.982Z,46.56
2023-05-19T11:52:27.734Z,44.93
2023-05-19T11:54:57.042Z,46.07
2023-05-19T11:57:24.890Z,44.28
2023-05-19T11:59:54.107Z,45.41
2023-05-19T12:02:28.051Z,44.08
2023-05-19T12:04:57.144Z,45.41
2023-05-19T12:07:28.875Z,46.22
2023-05-19T12:10:01.971Z,46.10
2023-05-19T12:12:32.024Z,45.10
2023-05-19T12:15:04.229Z,45.32
2023-05-19T12:17:36.196Z,46.37
2023-05-19T12:20:05.495Z,45.60
2023-05-19T12:22:35.028Z,45.20
2023-05-19T12:25:08.545Z,45.75
2023-05-19T12:27:40.011Z,46.21
2023-05-19T12:30:09.328Z,45.43
2023-05-19T12:32:38.022Z,46.24
2023-05-19T12:35:06.933Z,46.54
2023-05-19T12:37:37.165Z,46.78
2023-05-19T12:40:06.298Z,45.12
2023-05-19T12:42:35.884Z,45.26
2023-05-19T12:45:07.523Z,45.68
2023-05-19T12:47:37.884Z,44.70
2023-05-19T12:50:10.739Z,45.52
2023-05-19T12:52:48.322Z,45.44
2023-05-19T12:55:17.245Z,45.62
2023-05-19T12:57:50.675Z,46.36
2023-05-19T13:00:26.051Z,45.89
2023-05-19T13:03:05.552Z,45.62
2023-05-19T13:05:40.861Z,45.65
2023-05-19T13:08:11.506Z,46.19
2023-05-19T13:10:41.214Z,49.29
2023-05-19T13:13:27.660Z,47.66
2023-05-19T13:16:15.099Z,44.83
2023-05-19T13:19:01.788Z,44.41
2023-05-19T13:21:48.298Z,44.06
2023-05-19T13:24:16.638Z,44.02
2023-05-19T13:26:44.521Z,44.08
2023-05-19T13:29:12.386Z,43.88
2023-05-19T13:31:40.758Z,44.19
2023-05-19T13:34:08.634Z,43.31
2023-05-19T13:36:36.657Z,42.91
2023-05-19T13:39:04.695Z,43.06
2023-05-19T13:41:32.657Z,43.13
2023-05-19T13:44:01.181Z,42.96
2023-05-19T13:46:40.792Z,43.12
2023-05-19T13:49:16.483Z,42.80
2023-05-19T13:51:44.446Z,42.56
2023-05-19T13:54:12.419Z,42.77
2023-05-19T13:56:40.340Z,43.13
2023-05-19T13:59:08.302Z,42.72
2023-05-19T14:01:36.231Z,42.81
2023-05-19T14:04:05.369Z,43.03
2023-05-19T14:06:33.500Z,42.81
2023-05-19T14:09:01.571Z,42.28
2023-05-19T14:11:29.608Z,41.24
2023-05-19T14:13:57.524Z,42.26
2023-05-19T14:16:26.669Z,42.78
2023-05-19T14:18:55.061Z,43.01
2023-05-19T14:21:23.501Z,40.94
2023-05-19T14:23:51.470Z,39.82
2023-05-19T14:26:19.918Z,40.83
2023-05-19T14:28:47.748Z,40.06
2023-05-19T14:31:16.233Z,40.59
2023-05-19T14:33:44.242Z,40.54
2023-05-19T14:36:11.916Z,40.52
2023-05-19T14:38:39.604Z,40.02
2023-05-19T14:41:07.834Z,39.99
2023-05-19T14:43:35.648Z,40.02
2023-05-19T14:46:03.633Z,40.16
2023-05-19T14:48:31.371Z,40.11
2023-05-19T14:50:59.297Z,40.45
2023-05-19T14:53:27.171Z,39.93
2023-05-19T14:55:55.011Z,39.98
2023-05-19T14:58:28.935Z,40.26
2023-05-19T15:01:00.348Z,40.41
2023-05-19T15:03:28.448Z,40.31
2023-05-19T15:05:58.757Z,40.28
2023-05-19T15:08:26.771Z,40.59
2023-05-19T15:10:55.575Z,40.90
2023-05-19T15:13:23.509Z,40.48
2023-05-19T15:16:04.708Z,40.89
2023-05-19T15:18:42.946Z,42.49
2023-05-19T15:21:11.126Z,42.96
2023-05-19T15:23:39.085Z,43.49
2023-05-19T15:26:07.251Z,45.38
2023-05-19T15:28:38.067Z,47.36
2023-05-19T15:31:06.349Z,44.93
2023-05-19T15:33:34.843Z,43.69
2023-05-19T15:36:03.272Z,43.94
2023-05-19T15:38:36.475Z,45.54
2023-05-19T15:41:07.995Z,46.33
2023-05-19T15:43:36.215Z,46.18
2023-05-19T15:46:05.359Z,46.26
2023-05-19T15:48:34.461Z,45.97
2023-05-19T15:51:02.548Z,45.95
2023-05-19T15:53:30.838Z,45.99
2023-05-19T15:55:58.922Z,44.87
2023-05-19T15:58:26.764Z,44.28
2023-05-19T16:00:55.017Z,44.07
2023-05-19T16:03:23.845Z,45.98
2023-05-19T16:05:53.991Z,45.10
2023-05-19T16:08:22.521Z,44.42
2023-05-19T16:10:50.977Z,43.02
2023-05-19T16:13:19.540Z,43.86
2023-05-19T16:15:50.168Z,44.20
2023-05-19T16:18:18.948Z,44.18
2023-05-19T16:20:47.320Z,44.18
2023-05-19T16:23:18.588Z,45.37
2023-05-19T16:25:49.375Z,45.99
2023-05-19T16:28:17.992Z,46.91
2023-05-19T16:30:48.417Z,46.99
2023-05-19T16:33:18.682Z,47.52
2023-05-19T16:35:50.177Z,47.82
2023-05-19T16:38:19.292Z,50.25
2023-05-19T16:40:47.492Z,49.47
2023-05-19T16:43:18.630Z,49.85
2023-05-19T16:45:46.969Z,49.44
2023-05-19T16:48:15.385Z,49.82
2023-05-19T16:50:49.437Z,49.42
2023-05-19T16:53:21.557Z,51.39
2023-05-19T16:55:50.316Z,51.58
2023-05-19T16:58:18.982Z,51.17
2023-05-19T17:00:51.953Z,49.82
2023-05-19T17:03:23.730Z,50.22
2023-05-19T17:05:52.825Z,50.62
2023-05-19T17:08:23.787Z,50.88
2023-05-19T17:10:52.493Z,50.84
2023-05-19T17:13:21.255Z,50.07
2023-05-19T17:15:53.027Z,49.75
2023-05-19T17:18:23.907Z,49.46
2023-05-19T17:20:56.137Z,50.10
2023-05-19T17:23:25.031Z,49.79
2023-05-19T17:25:56.975Z,50.56
2023-05-19T17:28:25.611Z,50.03
2023-05-19T17:30:56.417Z,50.80
2023-05-19T17:33:27.159Z,50.32
2023-05-19T17:35:55.661Z,50.67
2023-05-19T17:38:30.110Z,50.30
2023-05-19T17:41:05.573Z,50.05
2023-05-19T17:43:37.523Z,49.96
2023-05-19T17:46:12.427Z,50.47
2023-05-19T17:48:42.244Z,50.59
2023-05-19T17:51:11.626Z,50.90
2023-05-19T17:53:50.004Z,51.22
2023-05-19T17:56:22.856Z,51.13
2023-05-19T17:58:56.344Z,51.30
2023-05-19T18:01:26.100Z,50.34
2023-05-19T18:03:55.010Z,50.68
2023-05-19T18:06:29.907Z,50.52
2023-05-19T18:09:01.472Z,50.61
2023-05-19T18:11:36.614Z,50.93
2023-05-19T18:14:05.646Z,51.07
2023-05-19T18:16:35.979Z,50.67
2023-05-19T18:19:06.375Z,50.79
2023-05-19T18:21:38.805Z,50.77
2023-05-19T18:24:16.931Z,50.59
2023-05-19T18:26:46.997Z,50.37
2023-05-19T18:29:18.346Z,50.15
2023-05-19T18:31:49.876Z,49.96
2023-05-19T18:34:28.070Z,49.53
2023-05-19T18:36:59.254Z,50.09
2023-05-19T18:39:32.947Z,50.66
2023-05-19T18:42:04.926Z,50.60
2023-05-19T18:44:35.934Z,50.76
2023-05-19T18:47:07.434Z,50.68
2023-05-19T18:49:37.673Z,49.82
2023-05-19T18:52:08.801Z,49.69
2023-05-19T18:54:46.249Z,48.92
2023-05-19T18:57:17.116Z,49.13
2023-05-19T18:59:54.152Z,48.93
2023-05-19T19:02:25.366Z,49.08
2023-05-19T19:04:58.925Z,49.18
2023-05-19T19:07:29.856Z,49.23
2023-05-19T19:10:06.666Z,48.60
2023-05-19T19:12:40.505Z,48.30
2023-05-19T19:15:17.173Z,48.30
2023-05-19T19:17:45.935Z,48.33
2023-05-19T19:20:20.607Z,48.46
2023-05-19T19:23:04.237Z,48.32
2023-05-19T19:25:36.489Z,48.74
2023-05-19T19:28:07.967Z,48.46
2023-05-19T19:30:38.553Z,48.58
2023-05-19T19:33:09.591Z,48.37
2023-05-19T19:35:45.036Z,48.32
2023-05-19T19:38:14.596Z,48.08
2023-05-19T19:40:43.462Z,48.47
2023-05-19T19:43:13.233Z,49.07
2023-05-19T19:45:41.902Z,48.45
2023-05-19T19:48:12.194Z,48.49
2023-05-19T19:50:41.576Z,48.68
2023-05-19T19:53:15.289Z,49.02
2023-05-19T19:56:10.882Z,50.28
2023-05-19T19:58:48.704Z,48.92
2023-05-19T20:01:21.250Z,48.79
2023-05-19T20:03:50.641Z,48.37
2023-05-19T20:06:22.661Z,48.24
2023-05-19T20:08:53.344Z,48.26
2023-05-19T20:11:25.375Z,48.68
2023-05-19T20:13:53.962Z,48.66
2023-05-19T20:16:26.705Z,48.11
2023-05-19T20:18:55.420Z,48.53
2023-05-19T20:21:28.364Z,48.48
2023-05-19T20:23:57.241Z,48.92
2023-05-19T20:26:26.257Z,48.53
2023-05-19T20:28:55.099Z,48.89
2023-05-19T20:31:33.175Z,48.77
2023-05-19T20:34:05.449Z,49.22
2023-05-19T20:36:35.232Z,48.92
2023-05-19T20:39:04.293Z,49.01
2023-05-19T20:41:37.400Z,49.37
2023-05-19T20:44:08.765Z,49.14
2023-05-19T20:46:40.780Z,49.77
2023-05-19T20:49:12.093Z,50.05
2023-05-19T20:51:41.081Z,49.74
2023-05-19T20:54:24.278Z,50.18
2023-05-19T20:57:06.515Z,49.03
2023-05-19T20:59:39.432Z,49.40
2023-05-19T21:02:13.886Z,48.84
2023-05-19T21:04:42.480Z,48.35
2023-05-19T21:07:11.140Z,48.17
2023-05-19T21:09:48.295Z,48.35
2023-05-19T21:12:18.987Z,48.69
2023-05-19T21:14:48.576Z,48.46
2023-05-19T21:17:21.524Z,48.32
2023-05-19T21:19:50.751Z,47.86
2023-05-19T21:22:19.346Z,47.85
2023-05-19T21:24:50.988Z,47.79
2023-05-19T21:27:23.209Z,48.05
2023-05-19T21:29:54.422Z,47.64
2023-05-19T21:32:22.781Z,47.76
2023-05-19T21:34:51.565Z,48.32
2023-05-19T21:37:22.722Z,47.85
2023-05-19T21:39:53.892Z,47.84
2023-05-19T21:42:23.557Z,47.69
2023-05-19T21:44:54.939Z,48.00
2023-05-19T21:47:25.370Z,48.40
2023-05-19T21:50:04.446Z,47.76
2023-05-19T21:52:33.128Z,47.76
2023-05-19T21:55:06.201Z,47.67
2023-05-19T21:57:36.661Z,47.32
2023-05-19T22:00:06.940Z,47.61
2023-05-19T22:02:45.787Z,47.46
2023-05-19T22:05:17.630Z,47.71
2023-05-19T22:07:48.880Z,47.72
2023-05-19T22:10:23.772Z,48.10
2023-05-19T22:12:56.036Z,47.40
2023-05-19T22:15:27.691Z,47.01
2023-05-19T22:18:02.700Z,47.08
2023-05-19T22:20:32.150Z,46.87
2023-05-19T22:23:04.476Z,47.32
2023-05-19T22:25:34.379Z,47.00
2023-05-19T22:28:07.828Z,46.25
2023-05-19T22:30:41.025Z,46.52
2023-05-19T22:33:15.630Z,46.53
2023-05-19T22:35:47.859Z,46.27
2023-05-19T22:38:16.332Z,46.75
2023-05-19T22:40:45.984Z,46.86
2023-05-19T22:43:14.580Z,46.50
2023-05-19T22:45:43.525Z,46.41
2023-05-19T22:48:15.071Z,46.20
2023-05-19T22:50:50.081Z,46.41
2023-05-19T22:53:18.745Z,46.18
2023-05-19T22:55:51.023Z,46.13
2023-05-19T22:58:20.300Z,46.25
2023-05-19T23:00:49.316Z,46.16
2023-05-19T23:03:20.945Z,46.47
2023-05-19T23:05:49.760Z,46.41
2023-05-19T23:08:20.944Z,46.70
2023-05-19T23:10:49.517Z,46.17
2023-05-19T23:13:24.041Z,46.59
2023-05-19T23:15:53.608Z,47.01
2023-05-19T23:18:24.136Z,47.04
2023-05-19T23:20:56.332Z,46.99
2023-05-19T23:23:25.126Z,46.95
2023-05-19T23:25:53.889Z,47.23
2023-05-19T23:28:22.264Z,47.45
2023-05-19T23:30:57.067Z,47.59
2023-05-19T23:33:28.816Z,47.60
2023-05-19T23:35:57.530Z,47.96
2023-05-19T23:38:28.222Z,47.47
2023-05-19T23:40:59.219Z,47.78
2023-05-19T23:43:29.007Z,47.56
2023-05-19T23:45:59.053Z,47.71
2023-05-19T23:48:32.996Z,47.52
2023-05-19T23:51:05.179Z,47.67
2023-05-19T23:53:37.370Z,47.21
2023-05-19T23:56:12.516Z,47.28
2023-05-19T23:58:42.437Z,47.10
